WETTERDATEN

GESTERN
Time Temp. Taup. r.Fe. Druck
00:08 13 10.4 84 1026.9
00:18 12.9 10.3 84 1026.7
00:28 12.8 10.2 84 1026.7
00:39 12.7 10.1 84 1026.5
00:48 12.6 10 84 1026.6
00:59 12.7 9.9 83 1026.5
01:09 12.7 9.9 83 1026.3
01:20 12.4 9.8 84 1026.2
01:29 12.3 9.7 84 1026.4
01:40 12.5 9.7 83 1026.2
01:48 12.4 9.6 83 1026.2
02:09 12.4 9.8 84 1026.1
02:21 12.3 9.9 85 1025.9
02:31 12.1 9.7 85 1025.7
02:37 12 9.6 85 1025.7
02:51 12.2 9.8 85 1025.6
03:02 12.2 9.8 85 1025.7
03:10 12.2 9.8 85 1025.6
03:18 12.3 9.7 84 1025.7
03:32 11.9 9.3 84 1025.8
03:40 11.9 9.5 85 1025.7
03:51 11.8 9.4 85 1025.4
03:59 11.5 9.2 86 1025.4
04:10 11.6 9.3 86 1025
04:21 11.6 9.2 85 1024.9
04:32 11.4 9 85 1025
04:40 11.2 8.8 85 1025.1
04:51 11.1 8.8 86 1025.2
05:02 11.3 8.9 85 1025.1
05:13 11.2 8.8 85 1025.1
05:21 11.3 9 86 1025.1
05:32 11.2 8.9 86 1025.1
05:43 11.1 9 87 1025
05:49 11 8.9 87 1025
06:02 11 8.9 87 1025.2
06:13 11.1 9 87 1025.4
06:21 10.9 8.8 87 1025.2
06:30 11 9.1 88 1025.2
06:43 10.9 9 88 1025
06:51 11 9.1 88 1024.7
07:02 11.1 9 87 1024.8
07:11 11.2 9.1 87 1024.7
07:21 11.1 9 87 1024.7
07:33 11.2 9.1 87 1024.6
07:43 11.2 9.1 87 1024.4
07:52 11.2 9.3 88 1024.4
08:02 11.5 9.6 88 1024.4
08:05 11.6 9.7 88 1024.2
08:23 11.5 9.6 88 1024.2
08:32 11.7 9.9 89 1024.2
08:43 11.9 10 88 1024.2
08:54 12.3 10.2 87 1024.4
09:00 12.3 10 86 1024.4
09:14 12.5 10.2 86 1024.3
09:25 12.7 9.9 83 1024.2
09:32 12.9 10.4 85 1024.1
09:41 13.2 10.7 85 1024.1
09:55 13.3 10.3 82 1024.1
10:03 13.5 10.3 81 1024.1
10:13 13.6 10.6 82 1024.1
10:22 13.7 10.3 80 1024.2
10:33 13.8 10.4 80 1024.1
10:44 14 10.8 81 1024.1
10:54 14 10.6 80 1024.1
11:03 13.9 10.3 79 1024.1
11:14 13.9 10.3 79 1024.1
11:25 13.9 10.3 79 1024
11:35 13.8 10.2 79 1024
12:06 13.7 10.7 82 1024.1
12:11 13.8 11 83 1023.9
12:25 13.8 10.8 82 1023.9
12:36 14.1 11.1 82 1023.9
12:44 14.1 11.1 82 1023.9
12:52 14.1 11.1 82 1023.9
13:06 14.1 11.3 83 1023.9
13:14 14.1 11.4 84 1024
13:25 14.1 11.4 84 1023.8
13:33 14.2 11.7 85 1023.8
13:45 14.3 11.6 84 1023.5
13:55 14.5 11.7 83 1023.4
14:06 14.8 11.6 81 1023.2
14:14 15 11.6 80 1023.1
14:25 15.1 11.5 79 1022.8
14:36 15.2 11.4 78 1022.9
14:47 15.2 11.6 79 1022.9
14:50 15.2 11.4 78 1023.4
15:06 15.2 11.6 79 1023.6
15:17 15.1 11.1 77 1023.5
15:23 15.1 11.1 77 1023.4
15:37 14.8 11.2 79 1023.1
15:47 14.9 11.5 80 1022.9
15:55 15.1 11.7 80 1022.8
16:04 15.4 11.8 79 1022.8
16:18 15.7 11.3 75 1022.7
16:27 15.8 11.2 74 1022.6
16:36 15.9 11.1 73 1022.6
16:45 16 11 72 1022.8
16:56 16 11.2 73 1022.8
17:06 15.7 11.5 76 1022.9
17:17 15.5 11.7 78 1022.9
17:26 15.2 11.6 79 1022.9
17:37 15 11.4 79 1023.1
17:47 14.9 11.5 80 1022.9
17:57 14.6 11.2 80 1023.1
18:06 14.5 11.1 80 1023.2
18:18 14.2 11.2 82 1023.2
18:28 14.1 11.3 83 1023.3
18:39 13.9 11.2 84 1023.4
18:49 13.7 11.2 85 1023.6
18:59 13.5 11.2 86 1023.8
19:09 13.5 11.2 86 1023.9
19:15 13.5 11.4 87 1024
19:29 13.6 11.5 87 1024.1
19:40 13.6 11.5 87 1024.1
19:48 13.5 11.4 87 1024.1
19:55 13.5 11.4 87 1024
20:10 13.1 11.3 89 1024
20:18 12.9 11.1 89 1024.2
20:29 12.8 11.2 90 1024.2
20:37 12.8 11.4 91 1024.2
20:48 12.8 11.2 90 1024.2
20:59 12.7 11.3 91 1024
21:10 12.7 11.3 91 1024.1
21:18 12.6 11.2 91 1024.2
21:29 12.7 11.3 91 1024.3
21:40 12.7 11.3 91 1024.2
21:51 12.8 11.4 91 1024.3
21:59 12.7 11.3 91 1024.1
22:10 12.6 11.2 91 1024.1
22:21 12.5 11.2 92 1024
22:27 12.6 11.3 92 1023.8
22:40 12.6 11.3 92 1024
22:51 12.7 11.4 92 1024.1
22:59 12.7 11.4 92 1024.1
23:08 12.7 11.4 92 1024.1
23:21 12.7 11.4 92 1024.1
23:29 12.6 11.2 91 1024.2
23:40 12.6 11.3 92 1024.2
23:49 12.7 11.3 91 1024.1

TAGESSTATISTIK

2021-08-03
TEMPERATUR
MITTEL
13.1
MAXIMUM
16.0
16:45
MINIMUM
10.9
06:21
LUFTDRUCK
MITTEL
1024.3
MAXIMUM
1026.9
00:08
MINIMUM
1022.6
16:27
TAUPUNKT
MITTEL
10.5
MAXIMUM
11.8
16:04
MINIMUM
8.8
04:40
FEUCHTIGKEIT
MITTEL
85
MAXIMUM
92
22:21
MINIMUM
72
16:45
TEMPERATUR (°C)
MINIMUM
10.9
MAXIMUM
16.0
MITTEL
13.1
LUFTDRUCK (hpa)
MINIMUM
1022.6
MAXIMUM
1026.9
MITTEL
1024.3
MESSGERÄT